Upper Fairmount, Maryland
Current Conditions -  °F | °C
As of 2:54 PM on Monday 22 Dec 2014 (Local Time) from KWAL Reporting Station
Light Rain Light Rain  
Wind Chill: 37°   Ceiling: 2900
Heat Index: 45°   Visibility: 7mi
Dew Point: 44°   Wind: 20mph
Humidity: 97%   Direction: 60°ENE
Pressure: 30.1"   Gusts: 26mph
Location:  38.1°N, 75.79°W
Report Text: KWAL 221954Z AUTO 06017G23KT 7SM -RA OVC029 07/07 A3010 RMK AO2 RAB44 SLP191 P0000 T00720067
Loading
Personal Weather Stations






























Interactive Weather Map New forecast layout! Learn more

10-Day Weather Forecast

Advertisements
Track Severe Weather on mobile